createdAt,value
2019-01-23T00:01:25.324Z,14.27
2019-01-23T00:03:53.410Z,14.57
2019-01-23T00:06:21.500Z,16.07
2019-01-23T00:08:49.899Z,15.50
2019-01-23T00:11:18.303Z,14.07
2019-01-23T00:13:46.716Z,17.37
2019-01-23T00:16:15.116Z,14.97
2019-01-23T00:18:43.528Z,13.57
2019-01-23T00:21:11.932Z,14.40
2019-01-23T00:23:40.348Z,15.87
2019-01-23T00:26:08.756Z,13.43
2019-01-23T00:28:42.350Z,14.47
2019-01-23T00:31:07.308Z,15.97
2019-01-23T00:33:35.725Z,15.80
2019-01-23T00:36:04.498Z,15.03
2019-01-23T00:38:32.905Z,14.90
2019-01-23T00:41:01.313Z,14.57
2019-01-23T00:43:29.724Z,15.47
2019-01-23T00:45:58.133Z,14.77
2019-01-23T00:48:26.541Z,13.93
2019-01-23T00:50:54.943Z,13.33
2019-01-23T00:53:23.356Z,15.13
2019-01-23T00:55:51.790Z,13.63
2019-01-23T00:58:20.254Z,14.33
2019-01-23T01:00:48.391Z,14.37
2019-01-23T01:03:16.810Z,14.77
2019-01-23T01:05:45.222Z,15.17
2019-01-23T01:08:13.636Z,13.60
2019-01-23T01:10:42.188Z,14.20
2019-01-23T01:13:10.607Z,13.47
2019-01-23T01:15:58.356Z,16.43
2019-01-23T01:18:26.771Z,13.73
2019-01-23T01:20:54.848Z,14.27
2019-01-23T01:23:23.276Z,13.87
2019-01-23T01:25:52.012Z,14.17
2019-01-23T01:28:20.432Z,13.73
2019-01-23T01:30:48.845Z,16.30
2019-01-23T01:33:16.933Z,13.53
2019-01-23T01:35:45.332Z,15.67
2019-01-23T01:38:13.411Z,15.00
2019-01-23T01:40:41.823Z,14.50
2019-01-23T01:43:10.240Z,17.10
2019-01-23T01:45:38.311Z,13.53
2019-01-23T01:48:06.393Z,16.27
2019-01-23T01:50:34.797Z,14.40
2019-01-23T01:53:03.208Z,13.33
2019-01-23T01:55:31.614Z,15.57
2019-01-23T01:58:00.860Z,15.13
2019-01-23T02:00:29.344Z,14.80
2019-01-23T02:02:57.743Z,13.43
2019-01-23T02:05:26.159Z,13.30
2019-01-23T02:07:54.568Z,14.90
2019-01-23T02:10:23.312Z,14.33
2019-01-23T02:12:51.789Z,13.23
2019-01-23T02:15:20.667Z,14.40
2019-01-23T02:17:49.140Z,13.70
2019-01-23T02:20:22.689Z,14.97
2019-01-23T02:22:51.557Z,14.37
2019-01-23T02:25:20.448Z,16.63
2019-01-23T02:27:49.738Z,15.60
2019-01-23T02:30:22.961Z,14.87
2019-01-23T02:32:51.371Z,13.43
2019-01-23T02:35:19.825Z,14.20
2019-01-23T02:37:48.404Z,16.07
2019-01-23T02:40:18.960Z,14.60
2019-01-23T02:42:47.431Z,13.27
2019-01-23T02:45:16.487Z,13.97
2019-01-23T02:47:44.569Z,13.43
2019-01-23T02:50:14.120Z,14.43
2019-01-23T02:52:42.792Z,12.40
2019-01-23T02:55:11.853Z,14.00
2019-01-23T02:57:40.489Z,14.67
2019-01-23T03:00:17.164Z,13.90
2019-01-23T03:02:46.120Z,14.20
2019-01-23T03:05:16.876Z,14.90
2019-01-23T03:07:45.287Z,15.00
2019-01-23T03:10:16.452Z,15.30
2019-01-23T03:12:44.879Z,15.77
2019-01-23T03:15:15.649Z,14.37
2019-01-23T03:17:44.291Z,15.50
2019-01-23T03:20:15.445Z,17.57
2019-01-23T03:22:43.519Z,14.27
2019-01-23T03:25:13.276Z,13.17
2019-01-23T03:27:41.679Z,15.40
2019-01-23T03:30:13.305Z,15.07
2019-01-23T03:32:41.726Z,13.87
2019-01-23T03:35:10.464Z,14.43
2019-01-23T03:37:38.868Z,15.60
2019-01-23T03:40:10.358Z,12.93
2019-01-23T03:42:38.764Z,14.73
2019-01-23T03:45:09.615Z,12.00
2019-01-23T03:47:38.084Z,14.83
2019-01-23T03:50:09.939Z,12.87
2019-01-23T03:52:38.341Z,16.33
2019-01-23T03:55:08.896Z,14.93
2019-01-23T03:57:37.473Z,16.30
2019-01-23T04:00:07.082Z,17.30
2019-01-23T04:02:35.492Z,16.63
2019-01-23T04:05:06.740Z,17.33
2019-01-23T04:07:35.169Z,15.23
2019-01-23T04:10:05.044Z,16.93
2019-01-23T04:12:33.525Z,15.57
2019-01-23T04:15:01.922Z,15.50
2019-01-23T04:17:30.340Z,17.83
2019-01-23T04:19:58.797Z,14.97
2019-01-23T04:22:27.216Z,15.53
2019-01-23T04:24:55.611Z,14.80
2019-01-23T04:27:24.101Z,16.30
2019-01-23T04:29:52.515Z,14.37
2019-01-23T04:32:20.998Z,14.87
2019-01-23T04:34:49.461Z,14.87
2019-01-23T04:37:17.958Z,15.33
2019-01-23T04:39:46.029Z,17.77
2019-01-23T04:42:14.446Z,15.60
2019-01-23T04:44:42.853Z,15.50
2019-01-23T04:47:11.338Z,16.67
2019-01-23T04:49:39.733Z,16.47
2019-01-23T04:52:09.831Z,14.17
2019-01-23T04:54:38.236Z,16.30
2019-01-23T04:57:06.661Z,15.57
2019-01-23T04:59:35.060Z,16.40
2019-01-23T05:02:03.317Z,15.90
2019-01-23T05:04:31.726Z,14.77
2019-01-23T05:07:00.133Z,14.23
2019-01-23T05:09:47.881Z,16.80
2019-01-23T05:12:16.292Z,13.93
2019-01-23T05:14:44.364Z,14.67
2019-01-23T05:17:12.786Z,16.23
2019-01-23T05:19:41.188Z,14.43
2019-01-23T05:22:09.593Z,13.47
2019-01-23T05:24:38.001Z,14.73
2019-01-23T05:27:06.427Z,12.93
2019-01-23T05:29:34.830Z,12.33
2019-01-23T05:32:02.944Z,12.20
2019-01-23T05:34:31.343Z,13.47
2019-01-23T05:36:59.411Z,13.80
2019-01-23T05:39:27.823Z,16.00
2019-01-23T05:41:56.218Z,16.30
2019-01-23T05:44:24.636Z,19.00
2019-01-23T05:46:53.039Z,15.80
2019-01-23T05:49:21.456Z,15.07
2019-01-23T05:51:49.861Z,16.33
2019-01-23T05:54:18.448Z,14.47
2019-01-23T05:56:47.080Z,12.73
2019-01-23T05:59:15.624Z,14.77
2019-01-23T06:01:44.032Z,14.13
2019-01-23T06:04:12.516Z,16.50
2019-01-23T06:06:40.924Z,15.00
2019-01-23T06:09:09.732Z,14.87
2019-01-23T06:11:38.131Z,15.30
2019-01-23T06:14:06.551Z,16.10
2019-01-23T06:16:34.957Z,16.13
2019-01-23T06:19:03.376Z,13.40
2019-01-23T06:21:31.783Z,12.70
2019-01-23T06:24:00.211Z,15.80
2019-01-23T06:26:28.615Z,19.37
2019-01-23T06:28:57.030Z,17.20
2019-01-23T06:31:25.433Z,17.33
2019-01-23T06:33:53.848Z,19.50
2019-01-23T06:36:22.252Z,16.53
2019-01-23T06:38:50.664Z,17.07
2019-01-23T06:41:19.395Z,16.73
2019-01-23T06:43:47.852Z,17.20
2019-01-23T06:46:15.928Z,15.07
2019-01-23T06:48:44.349Z,16.27
2019-01-23T06:51:12.752Z,16.53
2019-01-23T06:53:41.169Z,17.63
2019-01-23T06:56:09.451Z,17.97
2019-01-23T06:58:37.920Z,20.43
2019-01-23T07:01:06.332Z,20.40
2019-01-23T07:03:34.637Z,18.70
2019-01-23T07:06:03.047Z,18.23
2019-01-23T07:08:31.460Z,16.97
2019-01-23T07:10:59.965Z,17.37
2019-01-23T07:13:28.809Z,16.87
2019-01-23T07:15:57.232Z,20.43
2019-01-23T07:18:25.303Z,19.00
2019-01-23T07:20:53.724Z,18.93
2019-01-23T07:23:21.800Z,21.70
2019-01-23T07:25:49.880Z,20.43
2019-01-23T07:28:17.956Z,19.37
2019-01-23T07:30:46.372Z,17.43
2019-01-23T07:33:14.445Z,19.07
2019-01-23T07:35:42.862Z,18.20
2019-01-23T07:38:11.268Z,20.30
2019-01-23T07:40:39.676Z,18.50
2019-01-23T07:43:07.748Z,17.40
2019-01-23T07:45:36.165Z,18.90
2019-01-23T07:48:04.642Z,19.23
2019-01-23T07:50:33.052Z,20.53
2019-01-23T07:53:01.457Z,17.67
2019-01-23T07:55:29.868Z,21.90
2019-01-23T07:57:58.268Z,20.40
2019-01-23T08:00:31.613Z,20.00
2019-01-23T08:02:57.833Z,18.23
2019-01-23T08:05:26.885Z,20.27
2019-01-23T08:07:55.357Z,21.37
2019-01-23T08:10:24.212Z,20.73
2019-01-23T08:12:52.879Z,18.13
2019-01-23T08:15:24.991Z,17.67
2019-01-23T08:17:53.396Z,17.57
2019-01-23T08:20:24.220Z,17.20
2019-01-23T08:22:52.720Z,17.27
2019-01-23T08:25:21.128Z,16.87
2019-01-23T08:27:49.197Z,18.00
2019-01-23T08:30:20.557Z,17.80
2019-01-23T08:32:49.290Z,16.20
2019-01-23T08:35:19.042Z,15.73
2019-01-23T08:37:47.449Z,18.43
2019-01-23T08:40:19.542Z,16.73
2019-01-23T08:42:47.971Z,20.27
2019-01-23T08:45:16.432Z,18.20
2019-01-23T08:47:44.520Z,17.37
2019-01-23T08:50:14.121Z,17.93
2019-01-23T08:52:42.534Z,16.27
2019-01-23T08:55:10.940Z,15.87
2019-01-23T08:57:39.344Z,15.67
2019-01-23T09:00:11.639Z,18.53
2019-01-23T09:02:39.727Z,15.93
2019-01-23T09:05:09.562Z,15.67
2019-01-23T09:07:38.068Z,15.97
2019-01-23T09:10:17.780Z,17.17
2019-01-23T09:12:46.188Z,14.77
2019-01-23T09:15:16.229Z,15.50
2019-01-23T09:17:44.313Z,17.23
2019-01-23T09:20:15.610Z,14.93
2019-01-23T09:22:44.019Z,15.57
2019-01-23T09:25:15.677Z,16.93
2019-01-23T09:27:44.096Z,16.47
2019-01-23T09:30:36.941Z,17.90
2019-01-23T09:33:26.457Z,18.10
2019-01-23T09:36:18.598Z,19.30
2019-01-23T09:39:05.273Z,17.47
2019-01-23T09:41:45.738Z,17.27
2019-01-23T09:44:38.263Z,16.47
2019-01-23T09:47:15.060Z,17.37
2019-01-23T09:50:07.588Z,17.83
2019-01-23T09:52:44.570Z,18.47
2019-01-23T09:55:13.040Z,16.73
2019-01-23T09:57:44.275Z,15.47
2019-01-23T10:00:18.796Z,20.80
2019-01-23T10:02:47.208Z,17.33
2019-01-23T10:05:15.280Z,19.80
2019-01-23T10:07:43.695Z,16.50
2019-01-23T10:10:15.171Z,17.83
2019-01-23T10:12:43.583Z,15.43
2019-01-23T10:15:21.027Z,18.53
2019-01-23T10:17:49.440Z,17.20
2019-01-23T10:20:17.844Z,17.60
2019-01-23T10:22:47.713Z,18.47
2019-01-23T10:25:16.927Z,21.07
2019-01-23T10:27:45.443Z,15.80
2019-01-23T10:30:15.293Z,13.60
2019-01-23T10:32:43.865Z,15.30
2019-01-23T10:35:17.969Z,14.10
2019-01-23T10:37:46.403Z,15.67
2019-01-23T10:40:18.816Z,15.63
2019-01-23T10:42:47.288Z,16.00
2019-01-23T10:45:16.135Z,17.07
2019-01-23T10:47:45.076Z,17.33
2019-01-23T10:50:16.405Z,14.60
2019-01-23T10:52:44.818Z,14.83
2019-01-23T10:55:14.160Z,15.80
2019-01-23T10:57:42.898Z,15.93
2019-01-23T11:00:14.601Z,15.77
2019-01-23T11:02:43.004Z,13.97
2019-01-23T11:05:14.630Z,15.53
2019-01-23T11:07:42.706Z,16.37
2019-01-23T11:10:16.750Z,13.47
2019-01-23T11:12:45.204Z,16.77
2019-01-23T11:15:14.052Z,15.80
2019-01-23T11:17:42.720Z,13.77
2019-01-23T11:20:14.075Z,15.57
2019-01-23T11:22:42.688Z,12.30
2019-01-23T11:25:13.538Z,12.47
2019-01-23T11:27:41.882Z,14.73
2019-01-23T11:30:16.151Z,15.67
2019-01-23T11:32:44.553Z,14.23
2019-01-23T11:35:13.136Z,15.57
2019-01-23T11:37:41.540Z,14.90
2019-01-23T11:40:16.128Z,13.80
2019-01-23T11:42:44.532Z,15.57
2019-01-23T11:45:13.520Z,13.20
2019-01-23T11:47:41.928Z,16.70
2019-01-23T11:50:21.763Z,13.20
2019-01-23T11:52:47.294Z,14.50
2019-01-23T11:55:15.652Z,14.50
2019-01-23T11:57:44.248Z,15.77
2019-01-23T12:00:18.649Z,14.40
2019-01-23T12:02:47.063Z,14.93
2019-01-23T12:05:18.664Z,14.73
2019-01-23T12:07:47.353Z,13.30
2019-01-23T12:10:18.259Z,13.63
2019-01-23T12:12:46.708Z,17.10
2019-01-23T12:15:16.152Z,15.70
2019-01-23T12:17:44.561Z,14.97
2019-01-23T12:20:13.603Z,14.53
2019-01-23T12:22:42.408Z,14.83
2019-01-23T12:25:12.059Z,14.30
2019-01-23T12:27:40.467Z,12.57
2019-01-23T12:30:17.793Z,14.47
2019-01-23T12:32:46.272Z,12.47
2019-01-23T12:35:14.945Z,13.47
2019-01-23T12:37:43.360Z,14.43
2019-01-23T12:40:14.314Z,12.67
2019-01-23T12:42:42.872Z,12.37
2019-01-23T12:45:20.444Z,13.03
2019-01-23T12:47:48.921Z,14.47
2019-01-23T12:50:18.618Z,13.33
2019-01-23T12:52:47.030Z,14.20
2019-01-23T12:55:15.456Z,15.03
2019-01-23T12:57:43.876Z,14.10
2019-01-23T13:00:15.957Z,12.83
2019-01-23T13:02:44.110Z,12.37
2019-01-23T13:05:15.328Z,13.10
2019-01-23T13:07:43.724Z,13.40
2019-01-23T13:10:15.376Z,12.17
2019-01-23T13:12:43.776Z,12.70
2019-01-23T13:15:18.290Z,11.73
2019-01-23T13:17:46.694Z,13.17
2019-01-23T13:20:15.847Z,12.40
2019-01-23T13:22:44.265Z,13.60
2019-01-23T13:25:21.540Z,12.77
2019-01-23T13:27:50.175Z,13.83
2019-01-23T13:30:20.938Z,11.27
2019-01-23T13:32:49.615Z,12.87
2019-01-23T13:35:20.730Z,12.23
2019-01-23T13:37:49.132Z,13.43
2019-01-23T13:40:23.512Z,12.77
2019-01-23T13:42:51.916Z,12.27
2019-01-23T13:45:20.665Z,12.87
2019-01-23T13:47:49.068Z,13.13
2019-01-23T13:50:17.663Z,12.90
2019-01-23T13:52:46.062Z,12.10
2019-01-23T13:55:22.520Z,11.70
2019-01-23T13:57:51.228Z,13.67
2019-01-23T14:00:25.383Z,12.43
2019-01-23T14:02:53.566Z,12.33
2019-01-23T14:05:21.688Z,11.87
2019-01-23T14:07:50.092Z,12.47
2019-01-23T14:10:18.440Z,14.03
2019-01-23T14:12:46.845Z,13.00
2019-01-23T14:15:18.364Z,13.53
2019-01-23T14:17:46.444Z,13.60
2019-01-23T14:20:16.571Z,13.60
2019-01-23T14:22:44.980Z,13.70
2019-01-23T14:25:15.934Z,15.10
2019-01-23T14:27:44.879Z,13.57
2019-01-23T14:30:35.620Z,14.17
2019-01-23T14:33:04.292Z,13.67
2019-01-23T14:35:32.844Z,14.13
2019-01-23T14:38:01.326Z,12.67
2019-01-23T14:40:29.804Z,12.00
2019-01-23T14:42:58.271Z,13.23
2019-01-23T14:45:26.712Z,12.70
2019-01-23T14:47:55.306Z,13.00
2019-01-23T14:50:25.032Z,12.87
2019-01-23T14:52:54.017Z,12.90
2019-01-23T14:55:23.368Z,12.50
2019-01-23T14:57:51.840Z,11.80
2019-01-23T15:00:28.474Z,13.30
2019-01-23T15:02:57.142Z,12.30
2019-01-23T15:05:25.295Z,12.43
2019-01-23T15:07:53.974Z,12.43
2019-01-23T15:10:24.819Z,12.73
2019-01-23T15:12:53.296Z,13.00
2019-01-23T15:15:21.980Z,14.10
2019-01-23T15:17:50.063Z,12.33
2019-01-23T15:20:21.014Z,12.10
2019-01-23T15:22:49.424Z,11.67
2019-01-23T15:25:18.004Z,10.10
2019-01-23T15:27:46.587Z,11.90
2019-01-23T15:30:18.668Z,11.30
2019-01-23T15:32:46.760Z,12.47
2019-01-23T15:35:15.333Z,13.00
2019-01-23T15:37:43.716Z,12.33
2019-01-23T15:40:15.343Z,12.07
2019-01-23T15:42:43.821Z,13.83
2019-01-23T15:45:12.799Z,11.30
2019-01-23T15:47:41.280Z,12.70
2019-01-23T15:50:10.896Z,12.53
2019-01-23T15:52:39.772Z,12.63
2019-01-23T15:55:11.411Z,12.30
2019-01-23T15:57:39.821Z,13.40
2019-01-23T16:00:17.236Z,11.90
2019-01-23T16:02:45.724Z,11.13
2019-01-23T16:05:14.699Z,12.57
2019-01-23T16:07:43.160Z,11.63
2019-01-23T16:10:17.377Z,10.27
2019-01-23T16:12:46.011Z,8.93
2019-01-23T16:15:17.377Z,11.13
2019-01-23T16:17:45.460Z,10.60
2019-01-23T16:20:13.545Z,11.67
2019-01-23T16:22:41.894Z,12.87
2019-01-23T16:25:13.477Z,11.13
2019-01-23T16:27:41.565Z,11.23
2019-01-23T16:30:20.252Z,12.20
2019-01-23T16:32:48.724Z,13.97
2019-01-23T16:35:17.407Z,10.97
2019-01-23T16:37:45.863Z,13.17
2019-01-23T16:40:14.450Z,11.00
2019-01-23T16:42:43.147Z,11.73
2019-01-23T16:45:19.176Z,13.30
2019-01-23T16:47:47.309Z,11.93
2019-01-23T16:50:18.154Z,11.80
2019-01-23T16:52:46.644Z,13.87
2019-01-23T16:55:15.584Z,13.37
2019-01-23T16:57:44.831Z,12.53
2019-01-23T17:00:19.330Z,10.83
2019-01-23T17:02:47.873Z,11.43
2019-01-23T17:05:19.489Z,10.17
2019-01-23T17:07:50.342Z,10.80
2019-01-23T17:10:21.649Z,12.27
2019-01-23T17:12:50.536Z,13.00
2019-01-23T17:15:19.560Z,11.83
2019-01-23T17:17:48.411Z,11.40
2019-01-23T17:20:24.200Z,10.47
2019-01-23T17:22:52.668Z,9.87
2019-01-23T17:25:20.732Z,11.67
2019-01-23T17:27:49.236Z,11.53
2019-01-23T17:30:19.064Z,12.07
2019-01-23T17:32:47.485Z,12.53
2019-01-23T17:35:18.205Z,11.10
2019-01-23T17:37:46.660Z,13.73
2019-01-23T17:40:16.300Z,10.93
2019-01-23T17:42:45.548Z,12.67
2019-01-23T17:45:17.073Z,11.97
2019-01-23T17:47:45.554Z,12.93
2019-01-23T17:50:17.268Z,11.03
2019-01-23T17:52:45.677Z,11.40
2019-01-23T17:55:17.729Z,11.00
2019-01-23T17:57:46.136Z,12.40
2019-01-23T18:00:21.680Z,11.83
2019-01-23T18:02:52.756Z,14.30
2019-01-23T18:05:20.228Z,12.70
2019-01-23T18:07:48.718Z,12.60
2019-01-23T18:10:16.988Z,13.43
2019-01-23T18:12:45.833Z,12.00
2019-01-23T18:15:15.083Z,16.33
2019-01-23T18:17:43.485Z,12.07
2019-01-23T18:20:14.984Z,14.70
2019-01-23T18:22:43.383Z,12.23
2019-01-23T18:25:13.141Z,13.80
2019-01-23T18:27:41.542Z,12.67
2019-01-23T18:30:17.637Z,12.93
2019-01-23T18:32:46.571Z,12.70
2019-01-23T18:35:23.937Z,11.87
2019-01-23T18:37:55.414Z,12.57
2019-01-23T18:40:43.349Z,12.10
2019-01-23T18:43:37.280Z,12.20
2019-01-23T18:46:12.604Z,11.23
2019-01-23T18:48:51.088Z,10.83
2019-01-23T18:51:20.622Z,11.50
2019-01-23T18:53:48.745Z,12.17
2019-01-23T18:56:17.228Z,12.20
2019-01-23T18:58:45.636Z,12.00
2019-01-23T19:01:14.054Z,10.63
2019-01-23T19:03:42.677Z,11.50
2019-01-23T19:06:11.160Z,11.77
2019-01-23T19:08:39.237Z,10.30
2019-01-23T19:11:07.395Z,12.60
2019-01-23T19:13:35.805Z,11.80
2019-01-23T19:16:05.264Z,10.70
2019-01-23T19:18:33.335Z,12.60
2019-01-23T19:21:01.824Z,14.37
2019-01-23T19:23:30.296Z,11.17
2019-01-23T19:25:58.700Z,12.27
2019-01-23T19:28:26.784Z,10.93
2019-01-23T19:30:55.195Z,11.83
2019-01-23T19:33:23.310Z,11.80
2019-01-23T19:35:51.569Z,13.00
2019-01-23T19:38:19.992Z,12.40
2019-01-23T19:40:51.484Z,10.90
2019-01-23T19:43:19.972Z,13.70
2019-01-23T19:45:48.440Z,11.87
2019-01-23T19:48:16.920Z,10.47
2019-01-23T19:50:45.520Z,11.23
2019-01-23T19:53:13.942Z,10.80
2019-01-23T19:55:42.012Z,11.17
2019-01-23T19:58:10.437Z,11.37
2019-01-23T20:00:38.904Z,10.87
2019-01-23T20:03:07.487Z,14.20
2019-01-23T20:05:35.564Z,12.33
2019-01-23T20:08:04.925Z,13.40
2019-01-23T20:10:33.328Z,11.57
2019-01-23T20:13:01.742Z,13.80
2019-01-23T20:15:29.808Z,12.33
2019-01-23T20:17:58.304Z,14.67
2019-01-23T20:20:26.708Z,12.07
2019-01-23T20:22:54.790Z,13.13
2019-01-23T20:25:25.714Z,13.13
2019-01-23T20:27:54.524Z,11.17
2019-01-23T20:30:29.921Z,12.40
2019-01-23T20:32:58.406Z,10.97
2019-01-23T20:35:26.500Z,12.03
2019-01-23T20:37:54.584Z,14.77
2019-01-23T20:40:22.995Z,12.73
2019-01-23T20:42:51.416Z,12.77
2019-01-23T20:45:19.489Z,11.73
2019-01-23T20:47:47.575Z,12.00
2019-01-23T20:50:19.480Z,13.50
2019-01-23T20:52:47.562Z,13.60
2019-01-23T20:55:15.658Z,13.33
2019-01-23T20:57:44.064Z,13.33
2019-01-23T21:00:20.964Z,13.83
2019-01-23T21:02:49.386Z,13.37
2019-01-23T21:05:18.061Z,11.73
2019-01-23T21:07:46.476Z,14.67
2019-01-23T21:10:17.525Z,16.37
2019-01-23T21:12:45.608Z,12.40
2019-01-23T21:15:16.353Z,11.50
2019-01-23T21:17:44.440Z,12.23
2019-01-23T21:20:13.090Z,11.23
2019-01-23T21:22:41.500Z,10.33
2019-01-23T21:25:10.145Z,12.33
2019-01-23T21:27:38.565Z,15.50
2019-01-23T21:30:15.848Z,13.20
2019-01-23T21:32:44.260Z,10.90
2019-01-23T21:35:13.200Z,12.73
2019-01-23T21:37:41.684Z,12.17
2019-01-23T21:40:13.165Z,10.17
2019-01-23T21:42:41.569Z,12.57
2019-01-23T21:45:13.020Z,11.67
2019-01-23T21:47:41.536Z,10.87
2019-01-23T21:50:13.064Z,11.63
2019-01-23T21:52:41.477Z,10.83
2019-01-23T21:55:10.927Z,11.73
2019-01-23T21:57:39.545Z,11.30
2019-01-23T22:00:17.040Z,9.47
2019-01-23T22:02:45.211Z,10.70
2019-01-23T22:05:14.270Z,10.30
2019-01-23T22:07:42.371Z,10.70
2019-01-23T22:10:13.625Z,10.87
2019-01-23T22:12:42.301Z,8.73
2019-01-23T22:15:12.051Z,9.70
2019-01-23T22:17:40.532Z,10.17
2019-01-23T22:20:17.516Z,9.03
2019-01-23T22:22:45.924Z,9.30
2019-01-23T22:25:16.777Z,9.40
2019-01-23T22:27:45.183Z,9.97
2019-01-23T22:30:14.869Z,9.23
2019-01-23T22:32:43.272Z,9.97
2019-01-23T22:35:11.953Z,9.63
2019-01-23T22:37:40.366Z,10.53
2019-01-23T22:40:10.228Z,11.30
2019-01-23T22:42:38.765Z,10.00
2019-01-23T22:45:08.380Z,10.57
2019-01-23T22:47:36.459Z,11.00
2019-01-23T22:50:13.874Z,10.83
2019-01-23T22:52:42.353Z,10.03
2019-01-23T22:55:11.407Z,10.53
2019-01-23T22:57:39.805Z,9.77
2019-01-23T23:00:20.178Z,10.13
2019-01-23T23:02:48.646Z,9.27
2019-01-23T23:05:17.064Z,10.77
2019-01-23T23:07:45.464Z,9.60
2019-01-23T23:10:14.123Z,10.93
2019-01-23T23:12:42.213Z,10.37
2019-01-23T23:15:12.187Z,13.00
2019-01-23T23:17:40.599Z,12.50
2019-01-23T23:20:11.532Z,10.87
2019-01-23T23:22:39.935Z,11.50
2019-01-23T23:25:08.607Z,10.50
2019-01-23T23:27:39.561Z,9.90
2019-01-23T23:30:11.402Z,10.33
2019-01-23T23:32:39.821Z,10.90
2019-01-23T23:35:08.564Z,11.07
2019-01-23T23:37:36.978Z,10.43
2019-01-23T23:40:08.459Z,10.53
2019-01-23T23:42:36.870Z,10.87
2019-01-23T23:45:08.349Z,11.87
2019-01-23T23:47:36.772Z,10.47
2019-01-23T23:50:08.386Z,9.83
2019-01-23T23:52:36.474Z,11.30
2019-01-23T23:55:07.025Z,11.37
2019-01-23T23:57:35.430Z,10.30
